Mathews, Virginia
Current Conditions -  °F | °C
As of 8:55 AM on Thursday 23 Oct 2014 (Local Time) from KW75 Reporting Station
Overcast Overcast  
Wind Chill: 53°   Ceiling: 4100
Heat Index: 53°   Visibility: 10mi
Dew Point: 44°   Wind: 14mph
Humidity: 71%   Direction: 310°NW
Pressure: 29.89"   Gusts: 24mph
Location:  37.44°N, 76.32°W
Report Text: KW75 231255Z AUTO 31012G21KT 290V350 10SM OVC041 12/07 A2989 RMK AO1 T01170066
Loading
Personal Weather Stations






























Interactive Weather Map
Tropical Storm Tracking
New forecast layout! Learn more

10-Day Weather Forecast

Advertisements
Track Severe Weather on mobile